sensor_id;sensor_type;location;lat;lon;timestamp;P1;P2;P0
73973;PMS5003;62336;-26.094;27.994;2023-02-27T00:02:14;0;0;
73973;PMS5003;62336;-26.094;27.994;2023-02-27T00:04:40;1;1;
73973;PMS5003;62336;-26.094;27.994;2023-02-27T00:07:05;1;1;
73973;PMS5003;62336;-26.094;27.994;2023-02-27T00:09:31;1;1;
73973;PMS5003;62336;-26.094;27.994;2023-02-27T00:11:57;1;1;
73973;PMS5003;62336;-26.094;27.994;2023-02-27T00:14:23;0;0;
73973;PMS5003;62336;-26.094;27.994;2023-02-27T00:16:48;1;1;
73973;PMS5003;62336;-26.094;27.994;2023-02-27T00:19:14;0;0;
73973;PMS5003;62336;-26.094;27.994;2023-02-27T00:21:40;2;2;
73973;PMS5003;62336;-26.094;27.994;2023-02-27T00:24:06;1;1;
73973;PMS5003;62336;-26.094;27.994;2023-02-27T00:26:31;0;0;
73973;PMS5003;62336;-26.094;27.994;2023-02-27T00:28:57;1;0;
73973;PMS5003;62336;-26.094;27.994;2023-02-27T00:31:23;1;1;
73973;PMS5003;62336;-26.094;27.994;2023-02-27T00:33:49;2;2;
73973;PMS5003;62336;-26.094;27.994;2023-02-27T00:36:14;0;0;
73973;PMS5003;62336;-26.094;27.994;2023-02-27T00:38:40;0;0;
73973;PMS5003;62336;-26.094;27.994;2023-02-27T00:41:06;1;0;
73973;PMS5003;62336;-26.094;27.994;2023-02-27T00:43:32;0;0;
73973;PMS5003;62336;-26.094;27.994;2023-02-27T00:45:58;1;1;
73973;PMS5003;62336;-26.094;27.994;2023-02-27T00:48:24;0;0;
73973;PMS5003;62336;-26.094;27.994;2023-02-27T00:50:49;1;0;
73973;PMS5003;62336;-26.094;27.994;2023-02-27T00:53:15;0;0;
73973;PMS5003;62336;-26.094;27.994;2023-02-27T00:55:41;0;0;
73973;PMS5003;62336;-26.094;27.994;2023-02-27T00:58:07;0;0;
73973;PMS5003;62336;-26.094;27.994;2023-02-27T01:00:32;0;0;
73973;PMS5003;62336;-26.094;27.994;2023-02-27T01:02:58;1;1;
73973;PMS5003;62336;-26.094;27.994;2023-02-27T01:05:24;1;1;
73973;PMS5003;62336;-26.094;27.994;2023-02-27T01:07:50;1;1;
73973;PMS5003;62336;-26.094;27.994;2023-02-27T01:10:16;0;0;
73973;PMS5003;62336;-26.094;27.994;2023-02-27T01:12:41;1;1;
73973;PMS5003;62336;-26.094;27.994;2023-02-27T01:15:08;1;1;
73973;PMS5003;62336;-26.094;27.994;2023-02-27T01:17:33;2;2;
73973;PMS5003;62336;-26.094;27.994;2023-02-27T01:19:59;5;3;
73973;PMS5003;62336;-26.094;27.994;2023-02-27T01:22:25;1;1;
73973;PMS5003;62336;-26.094;27.994;2023-02-27T01:24:51;2;2;
73973;PMS5003;62336;-26.094;27.994;2023-02-27T01:27:16;4;2;
73973;PMS5003;62336;-26.094;27.994;2023-02-27T01:29:42;2;2;
73973;PMS5003;62336;-26.094;27.994;2023-02-27T01:32:08;3;2;
73973;PMS5003;62336;-26.094;27.994;2023-02-27T01:34:34;2;2;
73973;PMS5003;62336;-26.094;27.994;2023-02-27T01:36:59;2;2;
73973;PMS5003;62336;-26.094;27.994;2023-02-27T01:39:26;1;1;
73973;PMS5003;62336;-26.094;27.994;2023-02-27T01:41:50;1;1;
73973;PMS5003;62336;-26.094;27.994;2023-02-27T01:44:16;1;1;
73973;PMS5003;62336;-26.094;27.994;2023-02-27T01:46:42;1;1;
73973;PMS5003;62336;-26.094;27.994;2023-02-27T01:49:09;1;1;
73973;PMS5003;62336;-26.094;27.994;2023-02-27T01:51:33;2;1;
73973;PMS5003;62336;-26.094;27.994;2023-02-27T01:53:58;1;1;
73973;PMS5003;62336;-26.094;27.994;2023-02-27T01:56:25;1;1;
73973;PMS5003;62336;-26.094;27.994;2023-02-27T01:58:50;2;2;
73973;PMS5003;62336;-26.094;27.994;2023-02-27T02:01:21;5;5;
73973;PMS5003;62336;-26.094;27.994;2023-02-27T02:03:42;4;4;
73973;PMS5003;62336;-26.094;27.994;2023-02-27T02:06:07;4;4;
73973;PMS5003;62336;-26.094;27.994;2023-02-27T02:08:34;7;7;
73973;PMS5003;62336;-26.094;27.994;2023-02-27T02:10:58;6;6;
73973;PMS5003;62336;-26.094;27.994;2023-02-27T02:13:25;8;8;
73973;PMS5003;62336;-26.094;27.994;2023-02-27T02:15:55;8;8;
73973;PMS5003;62336;-26.094;27.994;2023-02-27T02:18:18;11;11;
73973;PMS5003;62336;-26.094;27.994;2023-02-27T02:20:47;11;10;
73973;PMS5003;62336;-26.094;27.994;2023-02-27T02:28:03;13;11;
73973;PMS5003;62336;-26.094;27.994;2023-02-27T02:32:57;15;14;
73973;PMS5003;62336;-26.094;27.994;2023-02-27T02:40:15;11;10;
73973;PMS5003;62336;-26.094;27.994;2023-02-27T02:42:34;12;12;
73973;PMS5003;62336;-26.094;27.994;2023-02-27T02:45:02;13;12;
73973;PMS5003;62336;-26.094;27.994;2023-02-27T02:47:27;8;8;
73973;PMS5003;62336;-26.094;27.994;2023-02-27T02:49:53;12;11;
73973;PMS5003;62336;-26.094;27.994;2023-02-27T02:52:18;10;10;
73973;PMS5003;62336;-26.094;27.994;2023-02-27T02:54:43;10;10;
73973;PMS5003;62336;-26.094;27.994;2023-02-27T02:57:08;11;11;
73973;PMS5003;62336;-26.094;27.994;2023-02-27T02:59:34;11;10;
73973;PMS5003;62336;-26.094;27.994;2023-02-27T03:01:59;12;12;
73973;PMS5003;62336;-26.094;27.994;2023-02-27T03:04:26;10;10;
73973;PMS5003;62336;-26.094;27.994;2023-02-27T03:06:51;12;12;
73973;PMS5003;62336;-26.094;27.994;2023-02-27T03:09:17;9;9;
73973;PMS5003;62336;-26.094;27.994;2023-02-27T03:11:42;11;10;
73973;PMS5003;62336;-26.094;27.994;2023-02-27T03:14:08;11;11;
73973;PMS5003;62336;-26.094;27.994;2023-02-27T03:16:34;11;10;
73973;PMS5003;62336;-26.094;27.994;2023-02-27T03:18:59;10;10;
73973;PMS5003;62336;-26.094;27.994;2023-02-27T03:21:25;9;9;
73973;PMS5003;62336;-26.094;27.994;2023-02-27T03:23:50;9;9;
73973;PMS5003;62336;-26.094;27.994;2023-02-27T03:26:17;13;11;
73973;PMS5003;62336;-26.094;27.994;2023-02-27T03:28:44;12;10;
73973;PMS5003;62336;-26.094;27.994;2023-02-27T03:31:09;10;10;
73973;PMS5003;62336;-26.094;27.994;2023-02-27T03:33:34;11;10;
73973;PMS5003;62336;-26.094;27.994;2023-02-27T03:35:58;10;9;
73973;PMS5003;62336;-26.094;27.994;2023-02-27T03:38:26;8;8;
73973;PMS5003;62336;-26.094;27.994;2023-02-27T03:40:52;9;8;
73973;PMS5003;62336;-26.094;27.994;2023-02-27T03:43:16;9;9;
73973;PMS5003;62336;-26.094;27.994;2023-02-27T03:45:42;11;10;
73973;PMS5003;62336;-26.094;27.994;2023-02-27T03:48:07;9;9;
73973;PMS5003;62336;-26.094;27.994;2023-02-27T03:50:33;11;10;
73973;PMS5003;62336;-26.094;27.994;2023-02-27T03:52:58;7;7;
73973;PMS5003;62336;-26.094;27.994;2023-02-27T03:55:25;7;7;
73973;PMS5003;62336;-26.094;27.994;2023-02-27T03:57:50;7;7;
73973;PMS5003;62336;-26.094;27.994;2023-02-27T04:02:41;8;8;
73973;PMS5003;62336;-26.094;27.994;2023-02-27T04:05:07;6;6;
73973;PMS5003;62336;-26.094;27.994;2023-02-27T04:07:34;6;6;
73973;PMS5003;62336;-26.094;27.994;2023-02-27T04:10:07;9;7;
73973;PMS5003;62336;-26.094;27.994;2023-02-27T04:12:29;4;4;
73973;PMS5003;62336;-26.094;27.994;2023-02-27T04:14:52;5;5;
73973;PMS5003;62336;-26.094;27.994;2023-02-27T04:17:17;5;5;
73973;PMS5003;62336;-26.094;27.994;2023-02-27T04:19:45;6;6;
73973;PMS5003;62336;-26.094;27.994;2023-02-27T04:22:09;8;7;
73973;PMS5003;62336;-26.094;27.994;2023-02-27T04:24:34;7;6;
73973;PMS5003;62336;-26.094;27.994;2023-02-27T04:27:00;6;6;
73973;PMS5003;62336;-26.094;27.994;2023-02-27T04:29:26;7;6;
73973;PMS5003;62336;-26.094;27.994;2023-02-27T04:31:52;6;6;
73973;PMS5003;62336;-26.094;27.994;2023-02-27T04:34:17;6;6;
73973;PMS5003;62336;-26.094;27.994;2023-02-27T04:36:43;7;6;
73973;PMS5003;62336;-26.094;27.994;2023-02-27T04:39:08;5;5;
73973;PMS5003;62336;-26.094;27.994;2023-02-27T04:41:34;5;5;
73973;PMS5003;62336;-26.094;27.994;2023-02-27T04:43:59;7;7;
73973;PMS5003;62336;-26.094;27.994;2023-02-27T04:46:26;5;5;
73973;PMS5003;62336;-26.094;27.994;2023-02-27T04:48:51;5;5;
73973;PMS5003;62336;-26.094;27.994;2023-02-27T04:51:17;7;6;
73973;PMS5003;62336;-26.094;27.994;2023-02-27T04:53:44;6;6;
73973;PMS5003;62336;-26.094;27.994;2023-02-27T04:56:08;5;5;
73973;PMS5003;62336;-26.094;27.994;2023-02-27T04:58:34;6;5;
73973;PMS5003;62336;-26.094;27.994;2023-02-27T05:01:00;9;8;
73973;PMS5003;62336;-26.094;27.994;2023-02-27T05:03:27;12;12;
73973;PMS5003;62336;-26.094;27.994;2023-02-27T05:05:51;13;10;
73973;PMS5003;62336;-26.094;27.994;2023-02-27T05:08:18;10;10;
73973;PMS5003;62336;-26.094;27.994;2023-02-27T05:10:44;10;10;
73973;PMS5003;62336;-26.094;27.994;2023-02-27T05:13:09;11;10;
73973;PMS5003;62336;-26.094;27.994;2023-02-27T05:15:35;13;13;
73973;PMS5003;62336;-26.094;27.994;2023-02-27T05:18:00;16;13;
73973;PMS5003;62336;-26.094;27.994;2023-02-27T05:20:25;13;12;
73973;PMS5003;62336;-26.094;27.994;2023-02-27T05:22:50;12;12;
73973;PMS5003;62336;-26.094;27.994;2023-02-27T05:25:18;17;17;
73973;PMS5003;62336;-26.094;27.994;2023-02-27T05:27:42;16;15;
73973;PMS5003;62336;-26.094;27.994;2023-02-27T05:30:09;15;14;
73973;PMS5003;62336;-26.094;27.994;2023-02-27T05:32:33;18;17;
73973;PMS5003;62336;-26.094;27.994;2023-02-27T05:34:58;18;18;
73973;PMS5003;62336;-26.094;27.994;2023-02-27T05:37:24;15;13;
73973;PMS5003;62336;-26.094;27.994;2023-02-27T05:39:48;10;10;
73973;PMS5003;62336;-26.094;27.994;2023-02-27T05:42:14;9;9;
73973;PMS5003;62336;-26.094;27.994;2023-02-27T05:44:39;9;8;
73973;PMS5003;62336;-26.094;27.994;2023-02-27T05:47:04;14;13;
73973;PMS5003;62336;-26.094;27.994;2023-02-27T05:49:29;18;18;
73973;PMS5003;62336;-26.094;27.994;2023-02-27T05:51:54;25;24;
73973;PMS5003;62336;-26.094;27.994;2023-02-27T05:54:21;22;19;
73973;PMS5003;62336;-26.094;27.994;2023-02-27T05:56:45;20;18;
73973;PMS5003;62336;-26.094;27.994;2023-02-27T05:59:12;31;29;
73973;PMS5003;62336;-26.094;27.994;2023-02-27T06:01:37;39;37;
73973;PMS5003;62336;-26.094;27.994;2023-02-27T06:04:02;34;33;
73973;PMS5003;62336;-26.094;27.994;2023-02-27T06:06:28;38;35;
73973;PMS5003;62336;-26.094;27.994;2023-02-27T06:08:53;35;34;
73973;PMS5003;62336;-26.094;27.994;2023-02-27T06:11:18;32;29;
73973;PMS5003;62336;-26.094;27.994;2023-02-27T06:13:44;28;27;
73973;PMS5003;62336;-26.094;27.994;2023-02-27T06:16:10;19;19;
73973;PMS5003;62336;-26.094;27.994;2023-02-27T06:18:35;15;15;
73973;PMS5003;62336;-26.094;27.994;2023-02-27T06:21:01;22;19;
73973;PMS5003;62336;-26.094;27.994;2023-02-27T06:23:26;15;13;
73973;PMS5003;62336;-26.094;27.994;2023-02-27T06:25:52;11;10;
73973;PMS5003;62336;-26.094;27.994;2023-02-27T06:28:17;12;11;
73973;PMS5003;62336;-26.094;27.994;2023-02-27T06:30:43;12;11;
73973;PMS5003;62336;-26.094;27.994;2023-02-27T06:33:09;12;11;
73973;PMS5003;62336;-26.094;27.994;2023-02-27T06:35:35;12;12;
73973;PMS5003;62336;-26.094;27.994;2023-02-27T06:38:00;15;14;
73973;PMS5003;62336;-26.094;27.994;2023-02-27T06:40:26;13;13;
73973;PMS5003;62336;-26.094;27.994;2023-02-27T06:42:51;25;18;
73973;PMS5003;62336;-26.094;27.994;2023-02-27T06:45:16;14;13;
73973;PMS5003;62336;-26.094;27.994;2023-02-27T06:47:42;16;13;
73973;PMS5003;62336;-26.094;27.994;2023-02-27T06:50:08;21;19;
73973;PMS5003;62336;-26.094;27.994;2023-02-27T06:52:33;19;19;
73973;PMS5003;62336;-26.094;27.994;2023-02-27T06:54:58;21;20;
73973;PMS5003;62336;-26.094;27.994;2023-02-27T06:57:24;21;20;
73973;PMS5003;62336;-26.094;27.994;2023-02-27T06:59:49;24;23;
73973;PMS5003;62336;-26.094;27.994;2023-02-27T07:02:15;33;32;
73973;PMS5003;62336;-26.094;27.994;2023-02-27T07:04:40;38;36;
73973;PMS5003;62336;-26.094;27.994;2023-02-27T07:07:06;37;34;
73973;PMS5003;62336;-26.094;27.994;2023-02-27T07:09:31;31;29;
73973;PMS5003;62336;-26.094;27.994;2023-02-27T07:11:56;42;38;
73973;PMS5003;62336;-26.094;27.994;2023-02-27T07:14:22;42;41;
73973;PMS5003;62336;-26.094;27.994;2023-02-27T07:16:47;53;48;
73973;PMS5003;62336;-26.094;27.994;2023-02-27T07:19:13;45;43;
73973;PMS5003;62336;-26.094;27.994;2023-02-27T07:21:38;41;39;
73973;PMS5003;62336;-26.094;27.994;2023-02-27T07:24:03;35;33;
73973;PMS5003;62336;-26.094;27.994;2023-02-27T07:26:29;30;26;
73973;PMS5003;62336;-26.094;27.994;2023-02-27T07:28:54;34;32;
73973;PMS5003;62336;-26.094;27.994;2023-02-27T07:31:20;30;28;
73973;PMS5003;62336;-26.094;27.994;2023-02-27T07:33:44;27;25;
73973;PMS5003;62336;-26.094;27.994;2023-02-27T07:36:10;23;22;
73973;PMS5003;62336;-26.094;27.994;2023-02-27T07:38:35;29;26;
73973;PMS5003;62336;-26.094;27.994;2023-02-27T07:41:00;23;21;
73973;PMS5003;62336;-26.094;27.994;2023-02-27T07:43:26;28;26;
73973;PMS5003;62336;-26.094;27.994;2023-02-27T07:45:51;27;24;
73973;PMS5003;62336;-26.094;27.994;2023-02-27T07:48:17;22;20;
73973;PMS5003;62336;-26.094;27.994;2023-02-27T07:50:42;20;19;
73973;PMS5003;62336;-26.094;27.994;2023-02-27T07:53:07;19;18;
73973;PMS5003;62336;-26.094;27.994;2023-02-27T07:55:33;22;22;
73973;PMS5003;62336;-26.094;27.994;2023-02-27T07:57:58;27;26;
73973;PMS5003;62336;-26.094;27.994;2023-02-27T08:00:24;28;25;
73973;PMS5003;62336;-26.094;27.994;2023-02-27T08:02:49;23;23;
73973;PMS5003;62336;-26.094;27.994;2023-02-27T08:05:15;21;20;
73973;PMS5003;62336;-26.094;27.994;2023-02-27T08:07:40;20;18;
73973;PMS5003;62336;-26.094;27.994;2023-02-27T08:10:06;21;21;
73973;PMS5003;62336;-26.094;27.994;2023-02-27T08:12:32;19;19;
73973;PMS5003;62336;-26.094;27.994;2023-02-27T08:14:57;18;17;
73973;PMS5003;62336;-26.094;27.994;2023-02-27T08:17:23;19;18;
73973;PMS5003;62336;-26.094;27.994;2023-02-27T08:19:48;19;18;
73973;PMS5003;62336;-26.094;27.994;2023-02-27T08:22:13;21;20;
73973;PMS5003;62336;-26.094;27.994;2023-02-27T08:24:39;20;19;
73973;PMS5003;62336;-26.094;27.994;2023-02-27T08:27:05;21;19;
73973;PMS5003;62336;-26.094;27.994;2023-02-27T08:29:30;24;22;
73973;PMS5003;62336;-26.094;27.994;2023-02-27T08:31:55;18;18;
73973;PMS5003;62336;-26.094;27.994;2023-02-27T08:34:23;20;19;
73973;PMS5003;62336;-26.094;27.994;2023-02-27T08:36:46;18;17;
73973;PMS5003;62336;-26.094;27.994;2023-02-27T08:39:11;17;16;
73973;PMS5003;62336;-26.094;27.994;2023-02-27T08:41:36;21;20;
73973;PMS5003;62336;-26.094;27.994;2023-02-27T08:44:01;17;17;
73973;PMS5003;62336;-26.094;27.994;2023-02-27T08:46:27;21;21;
73973;PMS5003;62336;-26.094;27.994;2023-02-27T08:48:52;21;20;
73973;PMS5003;62336;-26.094;27.994;2023-02-27T08:51:17;16;16;
73973;PMS5003;62336;-26.094;27.994;2023-02-27T08:53:43;18;17;
73973;PMS5003;62336;-26.094;27.994;2023-02-27T08:56:09;21;20;
73973;PMS5003;62336;-26.094;27.994;2023-02-27T08:58:33;18;18;
73973;PMS5003;62336;-26.094;27.994;2023-02-27T09:00:58;19;18;
73973;PMS5003;62336;-26.094;27.994;2023-02-27T09:03:24;21;19;
73973;PMS5003;62336;-26.094;27.994;2023-02-27T09:05:49;17;17;
73973;PMS5003;62336;-26.094;27.994;2023-02-27T09:08:14;19;19;
73973;PMS5003;62336;-26.094;27.994;2023-02-27T09:10:39;19;19;
73973;PMS5003;62336;-26.094;27.994;2023-02-27T09:13:05;25;23;
73973;PMS5003;62336;-26.094;27.994;2023-02-27T09:15:31;25;25;
73973;PMS5003;62336;-26.094;27.994;2023-02-27T09:17:56;18;17;
73973;PMS5003;62336;-26.094;27.994;2023-02-27T09:20:21;22;20;
73973;PMS5003;62336;-26.094;27.994;2023-02-27T09:22:46;24;23;
73973;PMS5003;62336;-26.094;27.994;2023-02-27T09:25:13;19;18;
73973;PMS5003;62336;-26.094;27.994;2023-02-27T09:27:38;21;21;
73973;PMS5003;62336;-26.094;27.994;2023-02-27T09:30:03;23;23;
73973;PMS5003;62336;-26.094;27.994;2023-02-27T09:32:28;21;21;
73973;PMS5003;62336;-26.094;27.994;2023-02-27T09:34:54;19;18;
73973;PMS5003;62336;-26.094;27.994;2023-02-27T09:37:19;19;17;
73973;PMS5003;62336;-26.094;27.994;2023-02-27T09:39:45;18;18;
73973;PMS5003;62336;-26.094;27.994;2023-02-27T09:42:12;22;20;
73973;PMS5003;62336;-26.094;27.994;2023-02-27T09:44:36;16;16;
73973;PMS5003;62336;-26.094;27.994;2023-02-27T09:47:02;17;16;
73973;PMS5003;62336;-26.094;27.994;2023-02-27T09:49:27;23;23;
73973;PMS5003;62336;-26.094;27.994;2023-02-27T09:51:51;29;26;
73973;PMS5003;62336;-26.094;27.994;2023-02-27T09:54:17;23;22;
73973;PMS5003;62336;-26.094;27.994;2023-02-27T09:56:45;23;21;
73973;PMS5003;62336;-26.094;27.994;2023-02-27T09:59:11;23;22;
73973;PMS5003;62336;-26.094;27.994;2023-02-27T10:01:34;25;25;
73973;PMS5003;62336;-26.094;27.994;2023-02-27T10:06:24;28;28;
73973;PMS5003;62336;-26.094;27.994;2023-02-27T10:08:51;22;22;
73973;PMS5003;62336;-26.094;27.994;2023-02-27T10:11:16;25;23;
73973;PMS5003;62336;-26.094;27.994;2023-02-27T10:13:43;27;25;
73973;PMS5003;62336;-26.094;27.994;2023-02-27T10:16:05;25;24;
73973;PMS5003;62336;-26.094;27.994;2023-02-27T10:18:32;25;25;
73973;PMS5003;62336;-26.094;27.994;2023-02-27T10:20:57;27;25;
73973;PMS5003;62336;-26.094;27.994;2023-02-27T10:23:21;30;30;
73973;PMS5003;62336;-26.094;27.994;2023-02-27T10:25:46;29;27;
73973;PMS5003;62336;-26.094;27.994;2023-02-27T10:28:11;26;25;
73973;PMS5003;62336;-26.094;27.994;2023-02-27T10:30:35;25;23;
73973;PMS5003;62336;-26.094;27.994;2023-02-27T10:33:03;24;24;
73973;PMS5003;62336;-26.094;27.994;2023-02-27T10:35:27;27;27;
73973;PMS5003;62336;-26.094;27.994;2023-02-27T10:37:53;23;22;
73973;PMS5003;62336;-26.094;27.994;2023-02-27T10:40:18;25;24;
73973;PMS5003;62336;-26.094;27.994;2023-02-27T10:42:43;24;24;
73973;PMS5003;62336;-26.094;27.994;2023-02-27T10:45:11;24;24;
73973;PMS5003;62336;-26.094;27.994;2023-02-27T10:47:33;24;24;
73973;PMS5003;62336;-26.094;27.994;2023-02-27T10:49:59;26;26;
73973;PMS5003;62336;-26.094;27.994;2023-02-27T10:52:25;23;23;
73973;PMS5003;62336;-26.094;27.994;2023-02-27T10:54:51;26;24;
73973;PMS5003;62336;-26.094;27.994;2023-02-27T10:57:18;24;22;
73973;PMS5003;62336;-26.094;27.994;2023-02-27T10:59:40;27;25;
73973;PMS5003;62336;-26.094;27.994;2023-02-27T11:02:18;27;23;
73973;PMS5003;62336;-26.094;27.994;2023-02-27T11:04:32;28;28;
73973;PMS5003;62336;-26.094;27.994;2023-02-27T11:06:57;25;25;
73973;PMS5003;62336;-26.094;27.994;2023-02-27T11:09:23;31;30;
73973;PMS5003;62336;-26.094;27.994;2023-02-27T11:11:47;25;25;
73973;PMS5003;62336;-26.094;27.994;2023-02-27T11:19:04;25;25;
73973;PMS5003;62336;-26.094;27.994;2023-02-27T11:21:29;27;26;
73973;PMS5003;62336;-26.094;27.994;2023-02-27T11:23:55;28;27;
73973;PMS5003;62336;-26.094;27.994;2023-02-27T11:26:21;28;28;
73973;PMS5003;62336;-26.094;27.994;2023-02-27T11:28:46;31;28;
73973;PMS5003;62336;-26.094;27.994;2023-02-27T11:31:14;25;24;
73973;PMS5003;62336;-26.094;27.994;2023-02-27T11:33:38;27;26;
73973;PMS5003;62336;-26.094;27.994;2023-02-27T11:36:02;24;24;
73973;PMS5003;62336;-26.094;27.994;2023-02-27T11:38:28;22;21;
73973;PMS5003;62336;-26.094;27.994;2023-02-27T11:40:54;25;25;
73973;PMS5003;62336;-26.094;27.994;2023-02-27T11:43:19;22;20;
73973;PMS5003;62336;-26.094;27.994;2023-02-27T11:45:48;20;19;
73973;PMS5003;62336;-26.094;27.994;2023-02-27T11:48:10;19;18;
73973;PMS5003;62336;-26.094;27.994;2023-02-27T11:50:38;19;18;
73973;PMS5003;62336;-26.094;27.994;2023-02-27T11:53:04;20;20;
73973;PMS5003;62336;-26.094;27.994;2023-02-27T11:55:25;20;19;
73973;PMS5003;62336;-26.094;27.994;2023-02-27T11:57:52;19;18;
73973;PMS5003;62336;-26.094;27.994;2023-02-27T12:00:17;21;20;
73973;PMS5003;62336;-26.094;27.994;2023-02-27T12:02:42;21;21;
73973;PMS5003;62336;-26.094;27.994;2023-02-27T12:05:08;21;21;
73973;PMS5003;62336;-26.094;27.994;2023-02-27T12:07:33;19;19;
73973;PMS5003;62336;-26.094;27.994;2023-02-27T12:10:00;25;24;
73973;PMS5003;62336;-26.094;27.994;2023-02-27T12:12:23;20;19;
73973;PMS5003;62336;-26.094;27.994;2023-02-27T12:14:51;19;19;
73973;PMS5003;62336;-26.094;27.994;2023-02-27T12:17:17;21;18;
73973;PMS5003;62336;-26.094;27.994;2023-02-27T12:19:41;20;20;
73973;PMS5003;62336;-26.094;27.994;2023-02-27T12:22:05;19;19;
73973;PMS5003;62336;-26.094;27.994;2023-02-27T12:24:30;16;16;
73973;PMS5003;62336;-26.094;27.994;2023-02-27T12:26:56;17;17;
73973;PMS5003;62336;-26.094;27.994;2023-02-27T12:29:21;15;15;
73973;PMS5003;62336;-26.094;27.994;2023-02-27T12:31:47;16;16;
73973;PMS5003;62336;-26.094;27.994;2023-02-27T12:34:13;14;14;
73973;PMS5003;62336;-26.094;27.994;2023-02-27T12:36:35;16;16;
73973;PMS5003;62336;-26.094;27.994;2023-02-27T12:39:00;17;15;
73973;PMS5003;62336;-26.094;27.994;2023-02-27T12:41:31;16;16;
73973;PMS5003;62336;-26.094;27.994;2023-02-27T12:43:51;15;15;
73973;PMS5003;62336;-26.094;27.994;2023-02-27T12:46:19;19;18;
73973;PMS5003;62336;-26.094;27.994;2023-02-27T12:48:44;14;14;
73973;PMS5003;62336;-26.094;27.994;2023-02-27T12:51:07;16;16;
73973;PMS5003;62336;-26.094;27.994;2023-02-27T12:53:36;16;15;
73973;PMS5003;62336;-26.094;27.994;2023-02-27T12:55:58;16;16;
73973;PMS5003;62336;-26.094;27.994;2023-02-27T12:58:23;16;16;
73973;PMS5003;62336;-26.094;27.994;2023-02-27T13:00:47;16;15;
73973;PMS5003;62336;-26.094;27.994;2023-02-27T13:03:13;13;13;
73973;PMS5003;62336;-26.094;27.994;2023-02-27T13:05:41;18;16;
73973;PMS5003;62336;-26.094;27.994;2023-02-27T13:08:05;14;14;
73973;PMS5003;62336;-26.094;27.994;2023-02-27T13:10:29;16;15;
73973;PMS5003;62336;-26.094;27.994;2023-02-27T13:12:55;19;18;
73973;PMS5003;62336;-26.094;27.994;2023-02-27T13:15:21;19;17;
73973;PMS5003;62336;-26.094;27.994;2023-02-27T13:17:45;17;16;
73973;PMS5003;62336;-26.094;27.994;2023-02-27T13:20:16;25;24;
73973;PMS5003;62336;-26.094;27.994;2023-02-27T13:22:36;16;15;
73973;PMS5003;62336;-26.094;27.994;2023-02-27T13:25:00;15;14;
73973;PMS5003;62336;-26.094;27.994;2023-02-27T13:27:26;18;18;
73973;PMS5003;62336;-26.094;27.994;2023-02-27T13:29:53;16;16;
73973;PMS5003;62336;-26.094;27.994;2023-02-27T13:32:20;16;15;
73973;PMS5003;62336;-26.094;27.994;2023-02-27T13:34:41;14;14;
73973;PMS5003;62336;-26.094;27.994;2023-02-27T13:37:05;13;13;
73973;PMS5003;62336;-26.094;27.994;2023-02-27T13:39:38;16;15;
73973;PMS5003;62336;-26.094;27.994;2023-02-27T13:41:56;16;14;
73973;PMS5003;62336;-26.094;27.994;2023-02-27T13:46:46;13;13;
73973;PMS5003;62336;-26.094;27.994;2023-02-27T13:51:41;15;15;
73973;PMS5003;62336;-26.094;27.994;2023-02-27T13:54:07;13;13;
73973;PMS5003;62336;-26.094;27.994;2023-02-27T13:56:27;12;12;
73973;PMS5003;62336;-26.094;27.994;2023-02-27T13:58:52;9;9;
73973;PMS5003;62336;-26.094;27.994;2023-02-27T14:01:17;10;10;
73973;PMS5003;62336;-26.094;27.994;2023-02-27T14:03:43;14;14;
73973;PMS5003;62336;-26.094;27.994;2023-02-27T14:06:07;16;15;
73973;PMS5003;62336;-26.094;27.994;2023-02-27T14:08:35;14;14;
73973;PMS5003;62336;-26.094;27.994;2023-02-27T14:10:59;16;15;
73973;PMS5003;62336;-26.094;27.994;2023-02-27T14:15:52;18;15;
73973;PMS5003;62336;-26.094;27.994;2023-02-27T14:20:47;15;15;
73973;PMS5003;62336;-26.094;27.994;2023-02-27T14:25:30;14;14;
73973;PMS5003;62336;-26.094;27.994;2023-02-27T14:27:54;15;15;
73973;PMS5003;62336;-26.094;27.994;2023-02-27T14:30:25;14;14;
73973;PMS5003;62336;-26.094;27.994;2023-02-27T14:32:44;16;14;
73973;PMS5003;62336;-26.094;27.994;2023-02-27T14:35:09;16;16;
73973;PMS5003;62336;-26.094;27.994;2023-02-27T14:37:35;13;13;
73973;PMS5003;62336;-26.094;27.994;2023-02-27T14:40:02;16;15;
73973;PMS5003;62336;-26.094;27.994;2023-02-27T14:42:30;18;17;
73973;PMS5003;62336;-26.094;27.994;2023-02-27T14:44:51;15;15;
73973;PMS5003;62336;-26.094;27.994;2023-02-27T14:47:18;17;16;
73973;PMS5003;62336;-26.094;27.994;2023-02-27T14:49:43;16;16;
73973;PMS5003;62336;-26.094;27.994;2023-02-27T14:52:10;13;13;
73973;PMS5003;62336;-26.094;27.994;2023-02-27T14:54:34;16;16;
73973;PMS5003;62336;-26.094;27.994;2023-02-27T14:57:00;15;14;
73973;PMS5003;62336;-26.094;27.994;2023-02-27T14:59:25;13;12;
73973;PMS5003;62336;-26.094;27.994;2023-02-27T15:01:49;15;15;
73973;PMS5003;62336;-26.094;27.994;2023-02-27T15:04:15;20;19;
73973;PMS5003;62336;-26.094;27.994;2023-02-27T15:06:41;17;17;
73973;PMS5003;62336;-26.094;27.994;2023-02-27T15:09:06;16;15;
73973;PMS5003;62336;-26.094;27.994;2023-02-27T15:11:30;19;18;
73973;PMS5003;62336;-26.094;27.994;2023-02-27T15:13:57;19;18;
73973;PMS5003;62336;-26.094;27.994;2023-02-27T15:16:29;17;17;
73973;PMS5003;62336;-26.094;27.994;2023-02-27T15:18:46;16;15;
73973;PMS5003;62336;-26.094;27.994;2023-02-27T15:21:12;16;16;
73973;PMS5003;62336;-26.094;27.994;2023-02-27T15:23:37;13;13;
73973;PMS5003;62336;-26.094;27.994;2023-02-27T15:26:02;15;15;
73973;PMS5003;62336;-26.094;27.994;2023-02-27T15:28:28;18;18;
73973;PMS5003;62336;-26.094;27.994;2023-02-27T15:30:53;18;17;
73973;PMS5003;62336;-26.094;27.994;2023-02-27T15:33:18;16;16;
73973;PMS5003;62336;-26.094;27.994;2023-02-27T15:35:43;18;18;
73973;PMS5003;62336;-26.094;27.994;2023-02-27T15:40:34;21;20;
73973;PMS5003;62336;-26.094;27.994;2023-02-27T15:42:59;17;17;
73973;PMS5003;62336;-26.094;27.994;2023-02-27T15:45:32;15;15;
73973;PMS5003;62336;-26.094;27.994;2023-02-27T15:47:49;18;18;
73973;PMS5003;62336;-26.094;27.994;2023-02-27T15:52:41;14;14;
73973;PMS5003;62336;-26.094;27.994;2023-02-27T15:55:20;16;15;
73973;PMS5003;62336;-26.094;27.994;2023-02-27T15:57:30;16;16;
73973;PMS5003;62336;-26.094;27.994;2023-02-27T15:59:55;17;17;
73973;PMS5003;62336;-26.094;27.994;2023-02-27T16:02:21;17;17;
73973;PMS5003;62336;-26.094;27.994;2023-02-27T16:04:45;17;17;
73973;PMS5003;62336;-26.094;27.994;2023-02-27T16:07:13;21;19;
73973;PMS5003;62336;-26.094;27.994;2023-02-27T16:09:35;18;17;
73973;PMS5003;62336;-26.094;27.994;2023-02-27T16:12:10;19;18;
73973;PMS5003;62336;-26.094;27.994;2023-02-27T16:14:36;16;16;
73973;PMS5003;62336;-26.094;27.994;2023-02-27T16:16:53;23;20;
73973;PMS5003;62336;-26.094;27.994;2023-02-27T16:19:22;18;17;
73973;PMS5003;62336;-26.094;27.994;2023-02-27T16:24:17;27;24;